Time;durP1;ratioP1;P1;durP2;ratioP2;P2;SDS_P1;SDS_P2;PMS_P1;PMS_P2;Temp;Humidity;BMP_temperature;BMP_pressure;BME280_temperature;BME280_humidity;BME280_pressure;Samples;Min_cycle;Max_cycle;Signal;HPM_P1;HPM_P2
2022/12/13 00:00:25;;;;;;;93.35;8.38;;;;;;;;;;5053047;28;20024;-55
2022/12/13 00:02:52;;;;;;;147.73;13.55;;;;;;;;;;5070815;28;20040;-56
2022/12/13 00:05:19;;;;;;;79.63;8.15;;;;;;;;;;5070473;28;20041;-49
2022/12/13 00:07:46;;;;;;;123.07;11.63;;;;;;;;;;5070762;28;20075;-49
2022/12/13 00:10:13;;;;;;;75.15;7.72;;;;;;;;;;5070538;28;20034;-52
2022/12/13 00:12:40;;;;;;;64.25;6.32;;;;;;;;;;5052532;28;20095;-50
2022/12/13 00:15:07;;;;;;;62.70;7.70;;;;;;;;;;5070851;28;20023;-49
2022/12/13 00:17:34;;;;;;;115.68;9.60;;;;;;;;;;5070568;28;20561;-50
2022/12/13 00:20:02;;;;;;;93.57;9.23;;;;;;;;;;5070369;28;20051;-50
2022/12/13 00:22:29;;;;;;;88.97;9.38;;;;;;;;;;5069554;28;20043;-52
2022/12/13 00:24:56;;;;;;;105.15;9.00;;;;;;;;;;5052206;28;20036;-53
2022/12/13 00:27:23;;;;;;;76.07;7.97;;;;;;;;;;5066887;28;20582;-56
2022/12/13 00:29:51;;;;;;;57.78;6.00;;;;;;;;;;5069637;28;20043;-55
2022/12/13 00:32:18;;;;;;;58.97;6.13;;;;;;;;;;5052486;28;20218;-51
2022/12/13 00:34:45;;;;;;;67.43;6.32;;;;;;;;;;5067182;28;20032;-48
2022/12/13 00:37:12;;;;;;;50.13;5.85;;;;;;;;;;5069702;28;20103;-52
2022/12/13 00:39:40;;;;;;;60.30;6.43;;;;;;;;;;5051662;28;20431;-52
2022/12/13 00:42:07;;;;;;;55.10;5.30;;;;;;;;;;5053308;28;20033;-54
2022/12/13 00:44:34;;;;;;;112.57;9.95;;;;;;;;;;5073350;28;20194;-54
2022/12/13 00:47:02;;;;;;;76.30;7.78;;;;;;;;;;5054968;28;20032;-57
2022/12/13 00:49:29;;;;;;;71.05;7.22;;;;;;;;;;5072988;28;20039;-54
2022/12/13 00:51:56;;;;;;;113.03;11.25;;;;;;;;;;5073183;28;20032;-56
2022/12/13 00:54:23;;;;;;;99.43;9.43;;;;;;;;;;5069874;28;20386;-52
2022/12/13 00:56:52;;;;;;;94.72;9.43;;;;;;;;;;5072672;28;20021;-55
2022/12/13 00:59:20;;;;;;;61.78;6.45;;;;;;;;;;5038240;28;20044;-54
2022/12/13 01:01:48;;;;;;;56.80;7.35;;;;;;;;;;5055021;28;20032;-54
2022/12/13 01:04:15;;;;;;;62.92;7.85;;;;;;;;;;5054556;28;20486;-53
2022/12/13 01:06:48;;;;;;;67.38;8.25;;;;;;;;;;5073466;28;20115;-54
2022/12/13 01:09:23;;;;;;;51.17;6.38;;;;;;;;;;5073821;28;20135;-54
2022/12/13 01:11:50;;;;;;;64.40;5.97;;;;;;;;;;5073097;28;20059;-52
2022/12/13 01:14:17;;;;;;;44.30;5.47;;;;;;;;;;5073801;28;20021;-51
2022/12/13 01:16:44;;;;;;;46.42;5.85;;;;;;;;;;5073316;28;20074;-53
2022/12/13 01:19:11;;;;;;;55.20;6.70;;;;;;;;;;5072793;28;20037;-54
2022/12/13 01:21:38;;;;;;;31.05;5.20;;;;;;;;;;5073680;28;20020;-53
2022/12/13 01:24:06;;;;;;;64.72;6.70;;;;;;;;;;5073456;28;20024;-51
2022/12/13 01:26:33;;;;;;;42.22;6.40;;;;;;;;;;5072498;28;20473;-53
2022/12/13 01:29:01;;;;;;;37.70;4.22;;;;;;;;;;5073134;28;20036;-55
2022/12/13 01:31:28;;;;;;;42.50;4.80;;;;;;;;;;5073048;28;20032;-52
2022/12/13 01:33:55;;;;;;;50.50;6.30;;;;;;;;;;5072668;28;20040;-50
2022/12/13 01:36:22;;;;;;;41.15;5.10;;;;;;;;;;5073167;28;20083;-54
2022/12/13 01:38:49;;;;;;;47.20;5.47;;;;;;;;;;5072988;28;20432;-52
2022/12/13 01:41:17;;;;;;;43.97;5.97;;;;;;;;;;5072839;28;20024;-56
2022/12/13 01:43:45;;;;;;;44.22;5.25;;;;;;;;;;5055460;28;20036;-50
2022/12/13 01:46:13;;;;;;;29.67;4.63;;;;;;;;;;5077903;28;20082;-54
2022/12/13 01:49:00;;;;;;;25.90;4.70;;;;;;;;;;5053893;28;20078;-54
2022/12/13 01:51:50;;;;;;;25.38;4.30;;;;;;;;;;5058957;28;20452;-54
2022/12/13 01:54:19;;;;;;;34.53;4.55;;;;;;;;;;5061075;28;20059;-54
2022/12/13 01:56:51;;;;;;;45.42;6.18;;;;;;;;;;5069607;28;20035;-51
2022/12/13 01:59:18;;;;;;;;;;;;;;;;;;5072867;28;20587;-51
2022/12/13 02:01:46;;;;;;;43.63;7.78;;;;;;;;;;5072374;28;20285;-53
2022/12/13 02:04:12;;;;;;;53.25;6.82;;;;;;;;;;5072257;28;20048;-55
2022/12/13 02:06:45;;;;;;;41.95;6.50;;;;;;;;;;5072309;28;20028;-52
2022/12/13 02:09:12;;;;;;;65.45;8.32;;;;;;;;;;5072185;28;20029;-50
2022/12/13 02:11:40;;;;;;;72.57;8.40;;;;;;;;;;5072185;28;20024;-54
2022/12/13 02:14:08;;;;;;;50.45;6.45;;;;;;;;;;5072100;28;20082;-55
2022/12/13 02:16:47;;;;;;;35.90;4.82;;;;;;;;;;5072278;28;20036;-48
2022/12/13 02:19:29;;;;;;;38.50;4.25;;;;;;;;;;5072075;28;20029;-47
2022/12/13 02:22:26;;;;;;;52.13;5.75;;;;;;;;;;5072612;28;20033;-50
2022/12/13 02:25:06;;;;;;;33.63;4.57;;;;;;;;;;5001522;28;20054;-60
2022/12/13 02:27:49;;;;;;;44.40;4.32;;;;;;;;;;5054557;28;20394;-60
2022/12/13 02:30:45;;;;;;;29.55;3.47;;;;;;;;;;5072367;28;20082;-60
2022/12/13 02:33:22;;;;;;;24.52;3.00;;;;;;;;;;5055680;28;20033;-60
2022/12/13 02:36:00;;;;;;;27.40;2.72;;;;;;;;;;5072445;28;20052;-60
2022/12/13 02:38:33;;;;;;;30.20;3.17;;;;;;;;;;5072416;28;20045;-60
2022/12/13 02:41:33;;;;;;;32.75;3.38;;;;;;;;;;5072479;28;20371;-60
2022/12/13 02:44:00;;;;;;;38.85;3.83;;;;;;;;;;5057057;28;20115;-58
2022/12/13 02:46:29;;;;;;;40.88;4.07;;;;;;;;;;5071648;28;20024;-60
2022/12/13 02:48:57;;;;;;;35.28;3.53;;;;;;;;;;5072123;28;20021;-61
2022/12/13 02:51:25;;;;;;;33.67;3.83;;;;;;;;;;5071343;28;20036;-59
2022/12/13 02:53:52;;;;;;;24.13;2.55;;;;;;;;;;5071227;28;20025;-60
2022/12/13 02:56:18;;;;;;;29.05;2.80;;;;;;;;;;5071869;28;20028;-60
2022/12/13 02:58:51;;;;;;;23.50;2.95;;;;;;;;;;5054016;28;20398;-61
2022/12/13 03:01:17;;;;;;;23.77;2.45;;;;;;;;;;5072240;28;20082;-60
2022/12/13 03:03:53;;;;;;;28.45;2.90;;;;;;;;;;5071837;28;20024;-60
2022/12/13 03:06:29;;;;;;;23.23;2.88;;;;;;;;;;5072055;28;20498;-61
2022/12/13 03:09:08;;;;;;;25.70;2.90;;;;;;;;;;5072082;28;20045;-60
2022/12/13 03:14:33;;;;;;;32.25;2.83;;;;;;;;;;5072410;28;20178;-61
2022/12/13 03:17:02;;;;;;;32.42;2.65;;;;;;;;;;5071931;28;20036;-61
2022/12/13 03:19:29;;;;;;;21.50;2.20;;;;;;;;;;5071934;28;20028;-61
2022/12/13 03:21:56;;;;;;;28.20;2.47;;;;;;;;;;5071958;28;20493;-60
2022/12/13 03:24:23;;;;;;;22.05;2.33;;;;;;;;;;5072001;28;20021;-61
2022/12/13 03:26:50;;;;;;;24.75;2.67;;;;;;;;;;5071817;28;20397;-61
2022/12/13 03:29:18;;;;;;;37.53;3.05;;;;;;;;;;5071869;28;20106;-60
2022/12/13 03:31:45;;;;;;;20.58;2.63;;;;;;;;;;5071962;28;20032;-61
2022/12/13 03:34:12;;;;;;;24.40;2.95;;;;;;;;;;5072090;28;20051;-61
2022/12/13 03:36:39;;;;;;;19.58;2.28;;;;;;;;;;5071730;28;20032;-60
2022/12/13 03:39:06;;;;;;;16.73;1.70;;;;;;;;;;5071909;28;20103;-60
2022/12/13 03:41:33;;;;;;;24.17;2.58;;;;;;;;;;5071728;28;20441;-61
2022/12/13 03:44:01;;;;;;;19.38;2.33;;;;;;;;;;5053873;28;20048;-61
2022/12/13 03:46:28;;;;;;;28.38;2.40;;;;;;;;;;5071462;28;20072;-61
2022/12/13 03:48:55;;;;;;;21.50;2.58;;;;;;;;;;5071734;28;20025;-61
2022/12/13 03:51:22;;;;;;;16.00;1.90;;;;;;;;;;5071758;28;20043;-61
2022/12/13 03:53:48;;;;;;;20.77;2.22;;;;;;;;;;5071700;28;20024;-61
2022/12/13 03:56:16;;;;;;;15.85;1.95;;;;;;;;;;5071630;28;20033;-61
2022/12/13 03:58:43;;;;;;;11.85;1.80;;;;;;;;;;5071420;28;20532;-61
2022/12/13 04:01:11;;;;;;;28.35;2.08;;;;;;;;;;5071560;28;20086;-61
2022/12/13 04:03:39;;;;;;;24.58;2.00;;;;;;;;;;5071629;28;20021;-60
2022/12/13 04:06:07;;;;;;;32.55;3.67;;;;;;;;;;5071339;28;20040;-60
2022/12/13 04:08:34;;;;;;;24.88;2.60;;;;;;;;;;5071585;28;20039;-60
2022/12/13 04:13:51;;;;;;;24.60;3.00;;;;;;;;;;5042712;28;20102;-60
2022/12/13 04:16:19;;;;;;;19.38;2.25;;;;;;;;;;5073515;28;20025;-61
2022/12/13 04:18:46;;;;;;;17.83;2.47;;;;;;;;;;5075248;28;20558;-61
2022/12/13 04:21:13;;;;;;;21.77;2.53;;;;;;;;;;5075212;28;20024;-61
2022/12/13 04:23:40;;;;;;;37.00;3.45;;;;;;;;;;5075151;28;20024;-60
2022/12/13 04:26:07;;;;;;;28.90;3.40;;;;;;;;;;5074962;28;20039;-61
2022/12/13 04:28:34;;;;;;;21.50;2.53;;;;;;;;;;5075026;28;20073;-61
2022/12/13 04:31:01;;;;;;;15.50;2.55;;;;;;;;;;5075066;28;20506;-61
2022/12/13 04:33:28;;;;;;;16.33;2.00;;;;;;;;;;5075033;28;20027;-60
2022/12/13 04:35:54;;;;;;;18.55;2.15;;;;;;;;;;5074870;28;20656;-61
2022/12/13 04:38:21;;;;;;;15.13;1.98;;;;;;;;;;5074933;28;20036;-61
2022/12/13 04:40:48;;;;;;;9.15;1.73;;;;;;;;;;5074809;28;20112;-61
2022/12/13 04:43:15;;;;;;;20.20;1.80;;;;;;;;;;5074853;28;20028;-61
2022/12/13 04:45:42;;;;;;;11.70;1.60;;;;;;;;;;5074634;28;20116;-61
2022/12/13 04:48:09;;;;;;;15.88;1.70;;;;;;;;;;5074731;28;20020;-60
2022/12/13 04:50:36;;;;;;;17.13;2.00;;;;;;;;;;5074761;28;20027;-61
2022/12/13 04:53:03;;;;;;;13.10;2.08;;;;;;;;;;5074526;28;20419;-62
2022/12/13 04:55:30;;;;;;;17.88;2.55;;;;;;;;;;5074694;28;20094;-60
2022/12/13 04:57:57;;;;;;;14.88;2.15;;;;;;;;;;5074369;28;20035;-60
2022/12/13 05:00:24;;;;;;;11.98;2.30;;;;;;;;;;5074507;28;20470;-61
2022/12/13 05:02:51;;;;;;;16.13;2.13;;;;;;;;;;5074759;28;20090;-61
2022/12/13 05:05:18;;;;;;;19.02;2.13;;;;;;;;;;5074365;28;20168;-61
2022/12/13 05:07:45;;;;;;;18.30;2.20;;;;;;;;;;5074247;28;20047;-61
2022/12/13 05:10:12;;;;;;;17.38;1.70;;;;;;;;;;5074395;28;20127;-60
2022/12/13 05:12:39;;;;;;;27.75;2.25;;;;;;;;;;5074321;28;20020;-60
2022/12/13 05:15:06;;;;;;;13.85;1.52;;;;;;;;;;5074106;28;20032;-61
2022/12/13 05:17:34;;;;;;;19.85;2.33;;;;;;;;;;5074096;28;20081;-61
2022/12/13 05:20:04;;;;;;;13.70;1.85;;;;;;;;;;5074150;28;20064;-60
2022/12/13 05:22:31;;;;;;;9.05;1.85;;;;;;;;;;5074144;28;20060;-61
2022/12/13 05:24:58;;;;;;;16.02;1.80;;;;;;;;;;5074131;28;20025;-61
2022/12/13 05:27:25;;;;;;;13.07;1.75;;;;;;;;;;5073261;28;20036;-61
2022/12/13 05:29:52;;;;;;;14.40;1.83;;;;;;;;;;5074010;28;20371;-61
2022/12/13 05:32:19;;;;;;;10.85;1.63;;;;;;;;;;5074212;28;20394;-61
2022/12/13 05:34:46;;;;;;;14.65;1.67;;;;;;;;;;5073816;28;20036;-60
2022/12/13 05:37:13;;;;;;;6.30;1.27;;;;;;;;;;5073815;28;20095;-60
2022/12/13 05:39:40;;;;;;;10.70;1.15;;;;;;;;;;5073743;28;20027;-60
2022/12/13 05:42:07;;;;;;;7.78;1.60;;;;;;;;;;5073720;28;20507;-61
2022/12/13 05:44:34;;;;;;;16.83;1.60;;;;;;;;;;5073710;28;20059;-61
2022/12/13 05:47:01;;;;;;;16.83;2.30;;;;;;;;;;5073457;28;20103;-60
2022/12/13 05:49:28;;;;;;;15.30;1.70;;;;;;;;;;5055593;28;20116;-60
2022/12/13 05:51:55;;;;;;;10.50;1.75;;;;;;;;;;5073462;28;20070;-60
2022/12/13 05:54:22;;;;;;;11.75;1.75;;;;;;;;;;5073506;28;20028;-60
2022/12/13 05:56:49;;;;;;;9.07;1.27;;;;;;;;;;5073363;28;20036;-60
2022/12/13 05:59:16;;;;;;;8.38;1.40;;;;;;;;;;5073112;28;20059;-61
2022/12/13 06:01:43;;;;;;;14.45;1.42;;;;;;;;;;5072610;28;20033;-60
2022/12/13 06:04:10;;;;;;;9.45;1.30;;;;;;;;;;5071962;28;20033;-60
2022/12/13 06:06:37;;;;;;;10.07;1.40;;;;;;;;;;5073034;28;20371;-60
2022/12/13 06:09:04;;;;;;;16.30;1.20;;;;;;;;;;5073490;28;20803;-60
2022/12/13 06:11:31;;;;;;;10.85;1.63;;;;;;;;;;5073152;28;20028;-60
2022/12/13 06:13:58;;;;;;;13.88;1.33;;;;;;;;;;5073071;28;20363;-61
2022/12/13 06:16:25;;;;;;;10.73;1.65;;;;;;;;;;5072943;28;20512;-60
2022/12/13 06:18:52;;;;;;;7.30;1.20;;;;;;;;;;5073027;28;20027;-61
2022/12/13 06:21:19;;;;;;;12.10;1.15;;;;;;;;;;5072860;28;20040;-60
2022/12/13 06:23:46;;;;;;;11.40;1.20;;;;;;;;;;5072982;28;20093;-60
2022/12/13 06:26:13;;;;;;;7.22;1.30;;;;;;;;;;5072705;28;20083;-60
2022/12/13 06:28:40;;;;;;;12.45;1.30;;;;;;;;;;5072819;28;20031;-60
2022/12/13 06:31:31;;;;;;;10.43;1.38;;;;;;;;;;5197819;22;20393;31
2022/12/13 06:34:01;;;;;;;18.20;2.22;;;;;;;;;;4998513;28;20038;-59
2022/12/13 06:36:28;;;;;;;16.35;1.58;;;;;;;;;;5013070;28;20030;-60
2022/12/13 06:38:55;;;;;;;17.98;1.67;;;;;;;;;;5012241;28;20022;-59
2022/12/13 06:41:22;;;;;;;16.08;1.58;;;;;;;;;;5012894;28;20022;-60
2022/12/13 06:43:49;;;;;;;12.23;1.42;;;;;;;;;;5012946;28;20472;-59
2022/12/13 06:46:16;;;;;;;16.13;1.85;;;;;;;;;;5012792;28;20045;-59
2022/12/13 06:48:44;;;;;;;14.27;1.50;;;;;;;;;;5012881;28;20029;-58
2022/12/13 06:51:11;;;;;;;14.50;1.95;;;;;;;;;;5012743;28;20062;-60
2022/12/13 06:53:39;;;;;;;23.80;2.28;;;;;;;;;;5012754;28;20092;-60
2022/12/13 06:56:07;;;;;;;20.15;2.40;;;;;;;;;;5012793;28;20045;-60
2022/12/13 06:58:34;;;;;;;17.80;1.70;;;;;;;;;;5012664;28;20033;-60
2022/12/13 07:01:03;;;;;;;19.42;1.95;;;;;;;;;;5012717;28;20030;-58
2022/12/13 07:03:30;;;;;;;9.63;1.10;;;;;;;;;;5012745;28;20022;-59
2022/12/13 07:06:03;;;;;;;10.68;1.10;;;;;;;;;;5012573;28;20038;-60
2022/12/13 07:08:30;;;;;;;12.18;1.08;;;;;;;;;;5012596;28;20029;-60
2022/12/13 07:10:58;;;;;;;14.43;1.95;;;;;;;;;;5012615;28;20029;-60
2022/12/13 07:13:25;;;;;;;28.98;3.22;;;;;;;;;;5012482;28;20033;-60
2022/12/13 07:15:52;;;;;;;21.77;3.15;;;;;;;;;;5012772;28;20399;-60
2022/12/13 07:18:19;;;;;;;20.50;2.20;;;;;;;;;;5012482;28;20026;-58
2022/12/13 07:20:46;;;;;;;13.30;1.75;;;;;;;;;;5012458;28;20029;-59
2022/12/13 07:23:13;;;;;;;6.95;1.10;;;;;;;;;;5012162;28;20038;-58
2022/12/13 07:25:41;;;;;;;10.75;1.25;;;;;;;;;;5012294;28;20033;-60
2022/12/13 07:28:08;;;;;;;10.45;1.42;;;;;;;;;;5012466;28;20454;-58
2022/12/13 07:30:37;;;;;;;8.55;1.00;;;;;;;;;;5012347;28;20476;-59
2022/12/13 07:33:05;;;;;;;5.13;1.00;;;;;;;;;;5012081;28;20042;-59
2022/12/13 07:35:32;;;;;;;11.52;1.30;;;;;;;;;;5012280;28;20030;-60
2022/12/13 07:37:59;;;;;;;7.93;1.00;;;;;;;;;;5012301;28;20033;-60
2022/12/13 07:40:26;;;;;;;6.75;0.98;;;;;;;;;;5012084;28;20364;-59
2022/12/13 07:42:54;;;;;;;7.50;1.20;;;;;;;;;;5012103;28;20105;-60
2022/12/13 07:45:22;;;;;;;9.75;1.00;;;;;;;;;;5012236;28;20105;-59
2022/12/13 07:47:50;;;;;;;7.47;1.10;;;;;;;;;;5012169;28;20037;-60
2022/12/13 07:50:19;;;;;;;10.02;1.45;;;;;;;;;;5012588;28;20373;-59
2022/12/13 07:52:49;;;;;;;8.15;1.10;;;;;;;;;;5015857;28;20030;-59
2022/12/13 07:55:16;;;;;;;14.93;1.55;;;;;;;;;;5016053;28;20084;-59
2022/12/13 07:57:46;;;;;;;13.85;1.08;;;;;;;;;;5016057;28;20053;-60
2022/12/13 08:00:13;;;;;;;11.05;1.30;;;;;;;;;;5015950;28;20038;-60
2022/12/13 08:02:41;;;;;;;13.75;1.20;;;;;;;;;;5015934;28;20022;-60
2022/12/13 08:05:08;;;;;;;15.65;2.00;;;;;;;;;;5015873;28;20034;-59
2022/12/13 08:07:35;;;;;;;8.93;1.15;;;;;;;;;;5015757;28;20432;-60
2022/12/13 08:10:02;;;;;;;7.95;0.98;;;;;;;;;;5015855;28;20128;-58
2022/12/13 08:12:29;;;;;;;6.57;1.42;;;;;;;;;;5015735;28;20037;-60
2022/12/13 08:14:55;;;;;;;14.38;1.45;;;;;;;;;;5015721;28;20541;-60
2022/12/13 08:17:23;;;;;;;7.15;1.15;;;;;;;;;;5015642;28;20105;-60
2022/12/13 08:19:50;;;;;;;19.88;1.90;;;;;;;;;;5015901;28;20030;-60
2022/12/13 08:22:17;;;;;;;8.65;1.30;;;;;;;;;;5015550;28;20030;-60
2022/12/13 08:24:44;;;;;;;13.50;1.38;;;;;;;;;;5015613;28;20445;-59
2022/12/13 08:27:10;;;;;;;13.52;1.48;;;;;;;;;;5015440;28;20046;-60
2022/12/13 08:29:37;;;;;;;14.40;1.70;;;;;;;;;;5015448;28;20117;-59
2022/12/13 08:32:06;;;;;;;94.05;8.77;;;;;;;;;;5015040;28;20068;-60
2022/12/13 08:34:33;;;;;;;131.35;12.15;;;;;;;;;;5015406;28;20026;-60
2022/12/13 08:37:00;;;;;;;117.85;11.98;;;;;;;;;;5015372;28;20042;-60
2022/12/13 08:39:27;;;;;;;66.47;5.95;;;;;;;;;;5015312;28;20123;-59
2022/12/13 08:41:54;;;;;;;79.20;7.50;;;;;;;;;;5015117;28;20495;-60
2022/12/13 08:44:21;;;;;;;80.10;7.72;;;;;;;;;;5015226;28;20018;-60
2022/12/13 08:46:48;;;;;;;70.60;6.35;;;;;;;;;;5015092;28;20115;-58
2022/12/13 08:49:15;;;;;;;113.40;9.60;;;;;;;;;;5015065;28;20054;-60
2022/12/13 08:51:42;;;;;;;70.43;7.57;;;;;;;;;;5015001;28;20018;-60
2022/12/13 08:54:09;;;;;;;57.05;5.47;;;;;;;;;;5015008;28;20033;-59
2022/12/13 08:56:36;;;;;;;43.70;5.15;;;;;;;;;;5014901;28;20041;-59
2022/12/13 08:59:03;;;;;;;50.78;5.28;;;;;;;;;;5014977;28;20026;-59
2022/12/13 09:01:30;;;;;;;49.50;5.38;;;;;;;;;;5014468;28;20086;-57
2022/12/13 09:03:57;;;;;;;68.72;6.47;;;;;;;;;;5014229;28;20077;-59
2022/12/13 09:06:24;;;;;;;58.90;6.20;;;;;;;;;;5014733;28;20034;-60
2022/12/13 09:08:54;;;;;;;51.15;4.88;;;;;;;;;;5014772;28;20064;-60
2022/12/13 09:11:21;;;;;;;32.85;3.40;;;;;;;;;;5014537;28;20457;-57
2022/12/13 09:13:48;;;;;;;41.45;4.32;;;;;;;;;;5014674;28;20032;-58
2022/12/13 09:16:22;;;;;;;46.47;5.20;;;;;;;;;;5014608;28;20036;-58
2022/12/13 09:18:50;;;;;;;46.67;5.10;;;;;;;;;;5014444;28;20030;-59
2022/12/13 09:21:17;;;;;;;41.97;5.40;;;;;;;;;;4996741;28;20037;-60
2022/12/13 09:23:44;;;;;;;43.10;4.45;;;;;;;;;;5014421;28;20072;-59
2022/12/13 09:26:12;;;;;;;64.90;6.70;;;;;;;;;;5014355;28;20045;-60
2022/12/13 09:28:39;;;;;;;45.78;4.90;;;;;;;;;;5014317;28;20049;-61
2022/12/13 09:31:08;;;;;;;59.67;5.97;;;;;;;;;;4996236;28;20088;-59
2022/12/13 09:33:35;;;;;;;75.05;9.05;;;;;;;;;;5013995;28;20042;-59
2022/12/13 09:36:06;;;;;;;76.88;7.72;;;;;;;;;;5014178;28;20169;-59
2022/12/13 09:38:36;;;;;;;61.85;6.65;;;;;;;;;;5013735;28;20439;-59
2022/12/13 09:41:18;;;;;;;50.00;6.38;;;;;;;;;;5013715;28;20022;-59
2022/12/13 09:43:47;;;;;;;47.03;4.45;;;;;;;;;;5014801;28;20034;-59
2022/12/13 09:46:23;;;;;;;55.65;6.35;;;;;;;;;;5013944;28;20048;-59
2022/12/13 09:48:52;;;;;;;64.47;7.07;;;;;;;;;;5013897;28;20036;-60
2022/12/13 09:51:19;;;;;;;86.95;8.32;;;;;;;;;;5013654;28;20030;-60
2022/12/13 09:53:49;;;;;;;86.18;8.88;;;;;;;;;;5013714;28;20029;-60
2022/12/13 09:56:18;;;;;;;84.45;8.70;;;;;;;;;;5013713;28;20036;-60
2022/12/13 09:58:48;;;;;;;85.53;9.68;;;;;;;;;;5013725;28;20026;-61
2022/12/13 10:01:15;;;;;;;73.28;7.07;;;;;;;;;;5013611;28;20121;-61
2022/12/13 10:03:44;;;;;;;61.72;6.93;;;;;;;;;;5012720;28;20125;-59
2022/12/13 10:06:15;;;;;;;53.88;5.82;;;;;;;;;;4993006;28;20173;-60
2022/12/13 10:08:44;;;;;;;62.63;7.38;;;;;;;;;;4992928;28;20027;-61
2022/12/13 10:11:15;;;;;;;69.03;7.68;;;;;;;;;;4992854;28;20152;-59
2022/12/13 10:13:51;;;;;;;88.18;8.15;;;;;;;;;;4992552;28;20038;-59
2022/12/13 10:16:24;;;;;;;95.13;9.88;;;;;;;;;;4993811;28;20061;-59
2022/12/13 10:18:51;;;;;;;;;;;;;;;;;;4994224;28;20054;-59
2022/12/13 10:21:20;;;;;;;56.00;6.60;;;;;;;;;;4993495;28;20032;-60
2022/12/13 10:23:47;;;;;;;49.28;6.20;;;;;;;;;;4993668;28;20105;-59
2022/12/13 10:26:14;;;;;;;59.08;6.40;;;;;;;;;;4993473;28;20042;-58
2022/12/13 10:28:42;;;;;;;60.33;5.45;;;;;;;;;;4993728;28;20081;-59
2022/12/13 10:31:15;;;;;;;50.47;5.60;;;;;;;;;;4993423;28;20038;-59
2022/12/13 10:33:49;;;;;;;50.20;4.97;;;;;;;;;;4992212;28;20035;-58
2022/12/13 10:36:30;;;;;;;44.70;5.10;;;;;;;;;;4993507;28;20036;-59
2022/12/13 10:38:57;;;;;;;51.72;5.50;;;;;;;;;;4993491;28;20089;-59
2022/12/13 10:41:29;;;;;;;54.15;5.25;;;;;;;;;;4993283;28;20026;-59
2022/12/13 10:44:14;;;;;;;63.90;6.97;;;;;;;;;;4993384;28;20034;-58
2022/12/13 10:46:52;;;;;;;53.33;5.88;;;;;;;;;;4993236;28;20040;-59
2022/12/13 10:49:19;;;;;;;58.92;6.20;;;;;;;;;;4993251;28;20388;-59
2022/12/13 10:51:46;;;;;;;48.90;5.45;;;;;;;;;;4993170;28;20033;-59
2022/12/13 10:54:19;;;;;;;59.05;6.07;;;;;;;;;;4993128;28;20432;-59
2022/12/13 10:56:50;;;;;;;46.25;5.20;;;;;;;;;;4993112;28;20396;-59
2022/12/13 10:59:23;;;;;;;32.17;4.38;;;;;;;;;;4993092;28;20456;-59
2022/12/13 11:01:50;;;;;;;58.28;6.32;;;;;;;;;;4993053;28;20029;-59
2022/12/13 11:04:30;;;;;;;74.97;8.52;;;;;;;;;;4992771;28;20031;-59
2022/12/13 11:06:59;;;;;;;88.60;9.60;;;;;;;;;;4992786;28;20038;-59
2022/12/13 11:09:31;;;;;;;63.97;7.15;;;;;;;;;;4992928;28;20403;-59
2022/12/13 11:12:00;;;;;;;90.55;7.90;;;;;;;;;;4992818;28;20508;-59
2022/12/13 11:14:29;;;;;;;54.30;5.50;;;;;;;;;;4992651;28;20113;-59
2022/12/13 11:16:58;;;;;;;64.30;7.07;;;;;;;;;;4992634;28;20044;-59
2022/12/13 11:19:36;;;;;;;397.88;21.95;;;;;;;;;;4992717;28;20045;-56
2022/12/13 11:22:04;;;;;;;264.27;17.17;;;;;;;;;;4992667;28;20106;-50
2022/12/13 11:24:33;;;;;;;136.35;10.55;;;;;;;;;;4992616;28;20026;-49
2022/12/13 11:27:15;;;;;;;59.28;5.22;;;;;;;;;;4992319;28;20030;-55
2022/12/13 11:29:51;;;;;;;36.13;3.50;;;;;;;;;;4992734;28;20530;-50
2022/12/13 11:32:28;;;;;;;21.30;3.60;;;;;;;;;;4992464;28;20133;-51
2022/12/13 11:35:03;;;;;;;113.28;7.43;;;;;;;;;;4992816;28;20081;-43
2022/12/13 11:37:42;;;;;;;52.20;5.82;;;;;;;;;;4992595;28;20026;-44
2022/12/13 11:40:14;;;;;;;31.13;3.63;;;;;;;;;;4992597;28;20469;-58
2022/12/13 11:42:45;;;;;;;45.42;4.65;;;;;;;;;;4992507;28;20018;-59
2022/12/13 11:45:14;;;;;;;44.70;3.63;;;;;;;;;;4992589;28;20081;-58
2022/12/13 11:47:47;;;;;;;106.65;9.32;;;;;;;;;;4992435;28;20551;-58
2022/12/13 11:50:22;;;;;;;102.78;7.35;;;;;;;;;;4992554;28;20030;-57
2022/12/13 11:52:54;;;;;;;170.52;14.48;;;;;;;;;;4989000;28;20582;-55
2022/12/13 11:55:21;;;;;;;;;;;;;;;;;;5010142;28;20030;-53
2022/12/13 11:57:48;;;;;;;55.80;5.55;;;;;;;;;;4991060;28;19956;-54
2022/12/13 12:00:18;;;;;;;44.28;4.43;;;;;;;;;;4991304;28;20034;-61
2022/12/13 12:02:47;;;;;;;52.97;4.10;;;;;;;;;;4991356;28;20734;-60
2022/12/13 12:05:46;;;;;;;35.75;5.00;;;;;;;;;;4991741;28;20067;-60
2022/12/13 12:08:19;;;;;;;33.00;3.70;;;;;;;;;;4979217;28;20050;-59
2022/12/13 12:10:47;;;;;;;43.55;4.78;;;;;;;;;;4991984;28;20022;-53
2022/12/13 12:13:21;;;;;;;35.90;3.60;;;;;;;;;;4991894;28;20031;-59
2022/12/13 12:15:57;;;;;;;43.08;5.18;;;;;;;;;;5008813;28;20117;-56
2022/12/13 12:18:24;;;;;;;41.78;5.25;;;;;;;;;;5011756;28;20030;-58
2022/12/13 12:21:04;;;;;;;46.08;4.88;;;;;;;;;;5011408;28;20403;-54
2022/12/13 12:23:45;;;;;;;36.30;4.38;;;;;;;;;;5011713;28;20607;-54
2022/12/13 12:26:17;;;;;;;45.00;5.85;;;;;;;;;;5011478;28;20105;-52
2022/12/13 12:28:50;;;;;;;50.00;4.82;;;;;;;;;;5011535;28;20080;-50
2022/12/13 12:31:32;;;;;;;33.10;4.72;;;;;;;;;;5011316;28;20029;-53
2022/12/13 12:34:12;;;;;;;19.58;3.17;;;;;;;;;;5011754;28;20030;-54
2022/12/13 12:36:45;;;;;;;48.50;5.72;;;;;;;;;;5012455;28;20038;-52
2022/12/13 12:39:18;;;;;;;41.63;4.70;;;;;;;;;;5015105;28;20028;-52
2022/12/13 12:41:48;;;;;;;52.38;5.07;;;;;;;;;;5014920;28;20044;-54
2022/12/13 12:44:18;;;;;;;57.85;5.15;;;;;;;;;;5014970;28;20101;-49
2022/12/13 12:46:45;;;;;;;55.28;6.25;;;;;;;;;;5014886;28;20033;-54
2022/12/13 12:49:18;;;;;;;45.65;5.88;;;;;;;;;;5014873;28;20061;-57
2022/12/13 12:52:03;;;;;;;41.58;4.63;;;;;;;;;;5014823;28;20049;-52
2022/12/13 12:54:36;;;;;;;45.47;4.15;;;;;;;;;;5014870;28;20507;-56
2022/12/13 12:57:15;;;;;;;38.22;4.05;;;;;;;;;;5014814;28;20026;-54
2022/12/13 13:00:01;;;;;;;53.20;5.25;;;;;;;;;;5014936;28;20034;-54
2022/12/13 13:02:37;;;;;;;28.90;3.40;;;;;;;;;;5014514;28;20069;-55
2022/12/13 13:05:30;;;;;;;38.25;4.55;;;;;;;;;;5014765;28;20387;-53
2022/12/13 13:08:05;;;;;;;43.25;4.32;;;;;;;;;;5012743;28;20042;-55
2022/12/13 13:10:32;;;;;;;34.67;3.25;;;;;;;;;;5014306;28;20034;-52
2022/12/13 13:12:59;;;;;;;39.30;3.88;;;;;;;;;;5014538;28;20036;-54
2022/12/13 13:15:32;;;;;;;42.58;4.47;;;;;;;;;;5013118;28;20061;-50
2022/12/13 13:18:00;;;;;;;34.00;3.72;;;;;;;;;;5014405;28;20030;-56
2022/12/13 13:20:28;;;;;;;43.13;3.70;;;;;;;;;;5014417;28;20033;-57
2022/12/13 13:22:55;;;;;;;22.60;3.53;;;;;;;;;;5014446;28;20120;-55
2022/12/13 13:25:29;;;;;;;44.05;5.45;;;;;;;;;;5014286;28;20033;-56
2022/12/13 13:28:13;;;;;;;41.72;5.05;;;;;;;;;;5014086;28;20041;-56
2022/12/13 13:30:59;;;;;;;50.88;6.05;;;;;;;;;;5014104;28;20029;-51
2022/12/13 13:33:45;;;;;;;79.80;7.13;;;;;;;;;;5013976;28;20046;-55
2022/12/13 13:36:30;;;;;;;38.95;4.22;;;;;;;;;;5014178;28;20034;-53
2022/12/13 13:38:57;;;;;;;42.35;4.43;;;;;;;;;;5013711;28;20040;-57
2022/12/13 13:41:42;;;;;;;39.40;3.90;;;;;;;;;;4994931;28;20499;-56
2022/12/13 13:44:27;;;;;;;31.08;3.72;;;;;;;;;;4994265;28;20062;-55
2022/12/13 13:47:26;;;;;;;15.75;2.90;;;;;;;;;;4994247;28;20485;-55
2022/12/13 13:50:12;;;;;;;20.40;2.80;;;;;;;;;;4992363;28;20030;-57
2022/12/13 13:52:45;;;;;;;34.08;3.85;;;;;;;;;;4994070;28;20069;-58
2022/12/13 13:55:35;;;;;;;40.28;4.32;;;;;;;;;;4994422;28;20042;-56
2022/12/13 13:58:15;;;;;;;32.15;4.57;;;;;;;;;;4993948;28;20025;-52
2022/12/13 14:00:48;;;;;;;31.90;3.35;;;;;;;;;;4993951;28;20062;-57
2022/12/13 14:03:27;;;;;;;35.72;4.60;;;;;;;;;;4993744;28;20026;-55
2022/12/13 14:06:12;;;;;;;57.10;7.50;;;;;;;;;;4994007;28;20561;-58
2022/12/13 14:08:42;;;;;;;55.13;8.20;;;;;;;;;;4992600;28;20030;-53
2022/12/13 14:11:12;;;;;;;71.28;8.57;;;;;;;;;;4993957;28;20030;-55
2022/12/13 14:13:54;;;;;;;56.40;7.72;;;;;;;;;;4993858;28;20061;-57
2022/12/13 14:16:39;;;;;;;67.30;8.18;;;;;;;;;;4993729;28;20142;-54
2022/12/13 14:19:24;;;;;;;59.28;8.27;;;;;;;;;;4993725;28;20030;-57
2022/12/13 14:22:17;;;;;;;63.47;7.82;;;;;;;;;;4993606;28;20073;-56
2022/12/13 14:25:03;;;;;;;44.90;5.70;;;;;;;;;;4978162;28;20121;-57
2022/12/13 14:27:36;;;;;;;59.88;6.65;;;;;;;;;;4993489;28;20038;-56
2022/12/13 14:30:04;;;;;;;45.50;6.15;;;;;;;;;;4993504;28;20516;-57
2022/12/13 14:32:31;;;;;;;53.47;5.93;;;;;;;;;;4992998;28;20070;-55
2022/12/13 14:34:59;;;;;;;47.25;4.90;;;;;;;;;;4993349;28;20031;-55
2022/12/13 14:37:31;;;;;;;35.17;3.75;;;;;;;;;;4993267;28;20030;-52
2022/12/13 14:39:59;;;;;;;48.30;5.03;;;;;;;;;;4993293;28;20049;-46
2022/12/13 14:42:29;;;;;;;33.75;4.25;;;;;;;;;;4993077;28;20034;-47
2022/12/13 14:44:57;;;;;;;29.75;3.88;;;;;;;;;;4993546;28;20045;-44
2022/12/13 14:47:24;;;;;;;30.08;3.60;;;;;;;;;;4993059;28;20038;-49
2022/12/13 14:49:55;;;;;;;20.52;3.10;;;;;;;;;;4993122;28;20034;-51
2022/12/13 14:52:26;;;;;;;31.23;3.17;;;;;;;;;;4993081;28;20671;-52
2022/12/13 14:54:56;;;;;;;26.25;3.47;;;;;;;;;;4992979;28;20025;-49